Time;durP1;ratioP1;P1;durP2;ratioP2;P2;SDS_P1;SDS_P2;PMS_P1;PMS_P2;Temp;Humidity;BMP_temperature;BMP_pressure;BME280_temperature;BME280_humidity;BME280_pressure;Samples;Min_cycle;Max_cycle;Signal;HPM_P1;HPM_P2
2022/02/26 00:01:34;;;;;;;;;;;;;;;4.08;100.00;100262.81;5061678;28;19924;-82
2022/02/26 00:04:01;;;;;;;;;;;;;;;4.52;100.00;100267.22;5095685;28;19924;-86
2022/02/26 00:06:28;;;;;;;;;;;;;;;4.44;100.00;100276.47;5096055;28;19930;-82
2022/02/26 00:08:55;;;;;;;;;;;;;;;4.12;100.00;100274.00;5096588;28;20024;-81
2022/02/26 00:11:22;;;;;;;;;;;;;;;4.47;100.00;100283.28;5095528;28;20017;-82
2022/02/26 00:13:49;;;;;;;;;;;;;;;4.47;100.00;100275.78;5096964;28;20364;-81
2022/02/26 00:16:16;;;;;;;;;;;;;;;4.53;100.00;100268.81;5095512;28;19967;-82
2022/02/26 00:18:43;;;;;;;;;;;;;;;4.10;100.00;100276.28;5095823;28;19930;-82
2022/02/26 00:21:10;;;;;;;;;;;;;;;3.34;100.00;100282.69;5096756;28;19924;-81
2022/02/26 00:23:40;;;;;;;;;;;;;;;3.71;100.00;100280.69;5078562;28;19938;-82
2022/02/26 00:26:07;;;;;;;;;;;;;;;4.12;100.00;100280.31;5078644;28;20010;-81
2022/02/26 00:28:34;;;;;;;;;;;;;;;4.09;100.00;100258.88;5078288;28;20002;-82
2022/02/26 00:31:01;;;;;;;;;;;;;;;4.40;100.00;100275.59;5078536;28;19932;-82
2022/02/26 00:33:29;;;;;;;;;;;;;;;4.46;100.00;100279.69;5095394;28;19924;-82
2022/02/26 00:35:59;;;;;;;;;;;;;;;4.59;100.00;100277.69;5095060;28;19966;-82
2022/02/26 00:38:26;;;;;;;;;;;;;;;4.74;100.00;100280.44;5095159;28;19924;-81
2022/02/26 00:40:54;;;;;;;;;;;;;;;4.29;100.00;100268.94;5094734;28;19924;-82
2022/02/26 00:43:21;;;;;;;;;;;;;;;4.28;100.00;100263.75;5061181;28;19924;-82
2022/02/26 00:45:48;;;;;;;;;;;;;;;4.23;100.00;100267.59;5093972;28;19935;-81
2022/02/26 00:48:15;;;;;;;;;;;;;;;3.82;100.00;100283.75;5094625;28;19924;-81
2022/02/26 00:50:42;;;;;;;;;;;;;;;4.29;100.00;100268.94;5094936;28;19927;-81
2022/02/26 00:53:10;;;;;;;;;;;;;;;4.53;100.00;100271.59;5095575;28;19924;-81
2022/02/26 00:55:37;;;;;;;;;;;;;;;4.72;100.00;100259.81;5060970;28;19924;-81
2022/02/26 00:58:06;;;;;;;;;;;;;;;3.77;100.00;100261.88;5094392;28;19939;-81
2022/02/26 01:00:33;;;;;;;;;;;;;;;3.73;100.00;100272.81;5095718;28;19963;-81
2022/02/26 01:03:00;;;;;;;;;;;;;;;4.01;100.00;100279.22;5094720;28;19924;-81
2022/02/26 01:05:28;;;;;;;;;;;;;;;4.24;100.00;100271.16;5076863;28;19932;-82
2022/02/26 01:07:55;;;;;;;;;;;;;;;3.61;100.00;100281.16;5059563;28;20290;-81
2022/02/26 01:10:23;;;;;;;;;;;;;;;3.74;100.00;100285.50;5074028;28;19930;-81
2022/02/26 01:12:50;;;;;;;;;;;;;;;4.10;100.00;100298.41;5057535;28;19924;-81
2022/02/26 01:15:17;;;;;;;;;;;;;;;3.99;100.00;100292.56;5057446;28;20267;-81
2022/02/26 01:17:44;;;;;;;;;;;;;;;4.43;100.00;100298.97;5084752;28;19971;-81
2022/02/26 01:20:11;;;;;;;;;;;;;;;4.21;100.00;100305.84;5093883;28;20390;-81
2022/02/26 01:22:38;;;;;;;;;;;;;;;4.44;100.00;100295.84;5104782;28;20022;-81
2022/02/26 01:25:06;;;;;;;;;;;;;;;4.50;100.00;100286.13;5097343;28;19928;-82
2022/02/26 01:27:34;;;;;;;;;;;;;;;4.35;100.00;100286.91;5097270;28;19930;-81
2022/02/26 01:30:01;;;;;;;;;;;;;;;3.40;100.00;100299.81;5080365;28;19969;-81
2022/02/26 01:32:28;;;;;;;;;;;;;;;4.03;100.00;100299.00;5097505;28;19924;-81
2022/02/26 01:34:55;;;;;;;;;;;;;;;4.36;100.00;100291.25;5096860;28;19931;-81
2022/02/26 01:37:22;;;;;;;;;;;;;;;4.35;100.00;100295.19;5097252;28;19935;-81
2022/02/26 01:39:49;;;;;;;;;;;;;;;4.00;100.00;100302.47;5096900;28;19924;-81
2022/02/26 01:42:20;;;;;;;;;;;;;;;4.10;100.00;100293.69;5079913;28;19930;-81
2022/02/26 01:44:48;;;;;;;;;;;;;;;4.41;100.00;100288.25;5115124;28;20375;-81
2022/02/26 01:47:15;;;;;;;;;;;;;;;4.16;100.00;100297.00;5080098;28;20286;-81
2022/02/26 01:49:42;;;;;;;;;;;;;;;4.44;100.00;100289.53;5114873;28;20325;-81
2022/02/26 01:52:09;;;;;;;;;;;;;;;4.60;100.00;100274.56;5114896;28;20026;-81
2022/02/26 01:54:38;;;;;;;;;;;;;;;4.44;100.00;100281.22;5063093;28;19923;-81
2022/02/26 01:57:06;;;;;;;;;;;;;;;3.76;100.00;100269.38;5114803;28;20022;-81
2022/02/26 01:59:35;;;;;;;;;;;;;;;4.13;100.00;100273.63;5096686;28;20009;-81
2022/02/26 02:02:02;;;;;;;;;;;;;;;3.94;100.00;100273.44;5063460;28;19927;-81
2022/02/26 02:04:32;;;;;;;;;;;;;;;4.01;100.00;100273.69;5079969;28;20420;-81
2022/02/26 02:07:00;;;;;;;;;;;;;;;4.10;100.00;100276.28;5080268;28;19930;-80
2022/02/26 02:09:28;;;;;;;;;;;;;;;4.14;100.00;100269.69;5093138;28;19924;-81
2022/02/26 02:11:56;;;;;;;;;;;;;;;3.99;100.00;100259.38;5093114;28;20023;-81
2022/02/26 02:14:23;;;;;;;;;;;;;;;3.60;100.00;100255.44;5093560;28;19924;-81
2022/02/26 02:16:50;;;;;;;;;;;;;;;4.13;100.00;100243.22;5076473;28;19924;-81
2022/02/26 02:19:17;;;;;;;;;;;;;;;4.19;100.00;100247.31;5092864;28;19961;-81
2022/02/26 02:21:44;;;;;;;;;;;;;;;4.14;100.00;100250.34;5076037;28;19955;-81
2022/02/26 02:24:13;;;;;;;;;;;;;;;4.17;100.00;100238.56;5093386;28;20018;-81
2022/02/26 02:26:40;;;;;;;;;;;;;;;4.33;100.00;100239.41;5059980;28;19924;-81
2022/02/26 02:29:08;;;;;;;;;;;;;;;3.99;100.00;100239.22;5092891;28;19924;-81
2022/02/26 02:31:35;;;;;;;;;;;;;;;3.97;100.00;100247.88;5059376;28;19924;-81
2022/02/26 02:34:03;;;;;;;;;;;;;;;4.14;100.00;100228.22;5093082;28;19928;-81
2022/02/26 02:36:30;;;;;;;;;;;;;;;4.34;100.00;100232.72;5095676;28;19930;-81
2022/02/26 02:38:58;;;;;;;;;;;;;;;4.21;100.00;100228.38;5096181;28;19928;-81
2022/02/26 02:41:25;;;;;;;;;;;;;;;3.70;100.00;100219.06;5079413;28;19959;-81
2022/02/26 02:43:52;;;;;;;;;;;;;;;3.73;100.00;100223.88;5096016;28;19973;-81
2022/02/26 02:46:20;;;;;;;;;;;;;;;3.47;100.00;100225.44;5079267;28;19924;-81
2022/02/26 02:48:47;;;;;;;;;;;;;;;3.50;100.00;100213.69;5078515;28;20344;-81
2022/02/26 02:51:14;;;;;;;;;;;;;;;3.77;100.00;100217.66;5113503;28;19924;-81
2022/02/26 02:53:41;;;;;;;;;;;;;;;3.32;100.00;100226.16;5062384;28;19924;-81
2022/02/26 02:56:09;;;;;;;;;;;;;;;4.01;100.00;100218.38;5079257;28;19959;-81
2022/02/26 02:58:37;;;;;;;;;;;;;;;3.79;100.00;100227.19;5113891;28;19924;-81
2022/02/26 03:01:04;;;;;;;;;;;;;;;4.02;100.00;100211.66;5079093;28;20270;-81
2022/02/26 03:03:32;;;;;;;;;;;;;;;4.15;100.00;100201.34;5079055;28;19924;-81
2022/02/26 03:05:59;;;;;;;;;;;;;;;3.23;100.00;100217.19;5114207;28;19984;-81
2022/02/26 03:08:26;;;;;;;;;;;;;;;3.42;100.00;100214.63;5079626;28;19931;-81
2022/02/26 03:10:54;;;;;;;;;;;;;;;3.88;100.00;100214.03;5099672;28;19928;-81
2022/02/26 03:13:22;;;;;;;;;;;;;;;4.31;100.00;100219.59;5100309;28;19945;-81
2022/02/26 03:15:50;;;;;;;;;;;;;;;4.48;100.00;100210.97;5082784;28;19968;-81
2022/02/26 03:18:17;;;;;;;;;;;;;;;4.77;100.00;100212.50;5118245;28;19924;-81
2022/02/26 03:20:45;;;;;;;;;;;;;;;4.56;100.00;100201.66;5099841;28;19927;-81
2022/02/26 03:23:13;;;;;;;;;;;;;;;4.44;100.00;100209.28;5065931;28;20022;-81
2022/02/26 03:25:40;;;;;;;;;;;;;;;4.81;100.00;100202.31;5082508;28;19924;-81
2022/02/26 03:28:07;;;;;;;;;;;;;;;5.20;100.00;100199.31;5117499;28;19928;-81
2022/02/26 03:30:35;;;;;;;;;;;;;;;5.44;100.00;100199.06;5099661;28;20378;-81
2022/02/26 03:33:03;;;;;;;;;;;;;;;5.61;100.00;100203.41;5066613;28;19993;-81
2022/02/26 03:35:31;;;;;;;;;;;;;;;5.74;100.00;100201.31;5082504;28;20061;-81
2022/02/26 03:37:58;;;;;;;;;;;;;;;5.92;100.00;100191.41;5099421;28;19924;-81
2022/02/26 03:40:27;;;;;;;;;;;;;;;5.40;100.00;100191.84;5099088;28;19963;-82
2022/02/26 03:42:55;;;;;;;;;;;;;;;4.92;100.00;100184.78;5065843;28;19930;-81
2022/02/26 03:45:23;;;;;;;;;;;;;;;5.23;100.00;100184.72;5099445;28;19928;-82
2022/02/26 03:47:50;;;;;;;;;;;;;;;5.25;100.00;100185.19;5117319;28;19923;-81
2022/02/26 03:50:17;;;;;;;;;;;;;;;5.33;100.00;100186.94;5099271;28;19946;-81
2022/02/26 03:52:44;;;;;;;;;;;;;;;5.44;100.00;100182.44;5081933;28;20371;-81
2022/02/26 03:55:14;;;;;;;;;;;;;;;5.75;100.00;100191.81;5066466;28;19949;-81
2022/02/26 03:57:43;;;;;;;;;;;;;;;5.72;100.00;100189.75;5082167;28;19950;-81
2022/02/26 04:00:11;;;;;;;;;;;;;;;5.78;100.00;100168.88;5116931;28;20415;-81
2022/02/26 04:02:38;;;;;;;;;;;;;;;5.84;100.00;100178.56;5116978;28;19923;-81
2022/02/26 04:05:06;;;;;;;;;;;;;;;5.94;100.00;100183.53;5098816;28;19924;-81
2022/02/26 04:07:35;;;;;;;;;;;;;;;6.14;100.00;100179.53;5098596;28;19928;-81
2022/02/26 04:10:03;;;;;;;;;;;;;;;5.83;100.00;100174.97;5116929;28;19928;-81
2022/02/26 04:12:30;;;;;;;;;;;;;;;6.03;100.00;100175.78;5099612;28;20018;-81
2022/02/26 04:14:59;;;;;;;;;;;;;;;6.08;100.00;100178.22;5098806;28;20322;-81
2022/02/26 04:17:26;;;;;;;;;;;;;;;6.22;100.00;100189.63;5098888;28;20312;-81
2022/02/26 04:19:53;;;;;;;;;;;;;;;6.36;100.00;100178.78;5098294;28;19951;-82
2022/02/26 04:22:20;;;;;;;;;;;;;;;6.29;100.00;100175.88;5116532;28;20006;-81
2022/02/26 04:24:47;;;;;;;;;;;;;;;6.34;100.00;100175.56;5098845;28;19928;-81
2022/02/26 04:27:14;;;;;;;;;;;;;;;6.42;100.00;100168.97;5081581;28;20367;-81
2022/02/26 04:29:42;;;;;;;;;;;;;;;6.48;100.00;100164.72;5098190;28;20000;-81
2022/02/26 04:32:21;;;;;;;;;;;;;;;6.27;100.00;100170.69;5081444;28;20420;-81
2022/02/26 04:34:50;;;;;;;;;;;;;;;6.28;100.00;100165.94;5098322;28;19931;-81
2022/02/26 04:37:20;;;;;;;;;;;;;;;6.11;100.00;100167.22;5098376;28;19924;-81
2022/02/26 04:39:48;;;;;;;;;;;;;;;6.24;100.00;100160.31;5065411;28;19928;-81
2022/02/26 04:42:16;;;;;;;;;;;;;;;6.43;100.00;100162.25;5098467;28;20386;-81
2022/02/26 04:44:44;;;;;;;;;;;;;;;6.45;100.00;100165.47;5097910;28;19928;-81
2022/02/26 04:47:12;;;;;;;;;;;;;;;6.50;100.00;100165.13;5116491;28;20046;-81
2022/02/26 04:49:39;;;;;;;;;;;;;;;6.33;100.00;100165.66;5097941;28;19924;-82
2022/02/26 04:52:07;;;;;;;;;;;;;;;6.42;100.00;100171.75;5116177;28;20523;-81
2022/02/26 04:54:34;;;;;;;;;;;;;;;6.31;100.00;100170.75;5116117;28;20282;-81
2022/02/26 04:57:02;;;;;;;;;;;;;;;6.32;100.00;100161.25;5081077;28;19924;-81
2022/02/26 04:59:29;;;;;;;;;;;;;;;6.31;100.00;100159.66;5097959;28;19923;-81
2022/02/26 05:01:58;;;;;;;;;;;;;;;6.05;100.00;100162.31;5097825;28;19977;-81
2022/02/26 05:04:25;;;;;;;;;;;;;;;5.60;100.00;100162.97;5080889;28;20381;-81
2022/02/26 05:06:52;;;;;;;;;;;;;;;5.52;100.00;100164.00;5097933;28;20367;-81
2022/02/26 05:09:19;;;;;;;;;;;;;;;5.73;100.00;100164.44;5080431;28;20383;-81
2022/02/26 05:11:46;;;;;;;;;;;;;;;6.02;100.00;100174.97;5064061;28;20267;-81
2022/02/26 05:14:14;;;;;;;;;;;;;;;5.70;100.00;100156.03;5080697;28;20383;-81
2022/02/26 05:16:41;;;;;;;;;;;;;;;5.48;100.00;100155.59;5080690;28;20359;-81
2022/02/26 05:19:08;;;;;;;;;;;;;;;5.43;100.00;100160.63;5097342;28;19969;-81
2022/02/26 05:21:37;;;;;;;;;;;;;;;5.51;100.00;100162.41;5080635;28;19924;-81
2022/02/26 05:24:07;;;;;;;;;;;;;;;5.73;100.00;100156.13;5098070;28;19924;-81
2022/02/26 05:26:34;;;;;;;;;;;;;;;5.78;100.00;100160.56;5115345;28;19928;-81
2022/02/26 05:29:01;;;;;;;;;;;;;;;5.93;100.00;100163.28;5064041;28;19928;-81
2022/02/26 05:31:29;;;;;;;;;;;;;;;5.87;100.00;100155.63;5079836;28;19963;-81
2022/02/26 05:33:56;;;;;;;;;;;;;;;5.86;100.00;100154.03;5064031;28;20309;-81
2022/02/26 05:36:23;;;;;;;;;;;;;;;5.99;100.00;100169.34;5080346;28;20383;-81
2022/02/26 05:38:50;;;;;;;;;;;;;;;6.15;100.00;100162.53;5097490;28;20329;-81
2022/02/26 05:41:18;;;;;;;;;;;;;;;6.14;100.00;100154.56;5097007;28;19930;-81
2022/02/26 05:43:45;;;;;;;;;;;;;;;5.96;100.00;100153.44;5096913;28;19931;-82
2022/02/26 05:46:12;;;;;;;;;;;;;;;5.99;100.00;100159.06;5096945;28;19931;-82
2022/02/26 05:48:39;;;;;;;;;;;;;;;5.98;100.00;100160.22;5115130;28;19931;-81
2022/02/26 05:51:07;;;;;;;;;;;;;;;6.06;100.00;100163.94;5115114;28;20013;-81
2022/02/26 05:53:35;;;;;;;;;;;;;;;6.12;100.00;100165.25;5097224;28;20375;-81
2022/02/26 05:56:02;;;;;;;;;;;;;;;6.12;100.00;100166.03;5096804;28;20375;-81
2022/02/26 05:58:29;;;;;;;;;;;;;;;6.07;100.00;100165.53;5096794;28;19992;-81
2022/02/26 06:00:56;;;;;;;;;;;;;;;6.06;100.00;100173.06;5096850;28;19930;-81
2022/02/26 06:03:23;;;;;;;;;;;;;;;5.93;100.00;100165.25;5063131;28;19932;-81
2022/02/26 06:05:51;;;;;;;;;;;;;;;5.63;100.00;100161.44;5096901;28;19955;-81
2022/02/26 06:08:20;;;;;;;;;;;;;;;5.59;100.00;100172.44;5097017;28;19945;-81
2022/02/26 06:10:48;;;;;;;;;;;;;;;5.50;100.00;100175.44;5079886;28;19927;-81
2022/02/26 06:13:15;;;;;;;;;;;;;;;5.76;100.00;100165.66;5097324;28;19931;-81
2022/02/26 06:15:43;;;;;;;;;;;;;;;5.98;100.00;100179.66;5096783;28;19924;-81
2022/02/26 06:18:10;;;;;;;;;;;;;;;5.85;100.00;100192.06;5046612;28;19930;-81
2022/02/26 06:20:37;;;;;;;;;;;;;;;5.89;100.00;100169.94;5114790;28;19931;-82
2022/02/26 06:23:05;;;;;;;;;;;;;;;6.18;100.00;100169.34;5093154;28;19924;-82
2022/02/26 06:25:32;;;;;;;;;;;;;;;5.76;100.00;100176.75;5094327;28;19971;-82
2022/02/26 06:28:00;;;;;;;;;;;;;;;5.99;100.00;100180.44;5093312;28;19967;-81
2022/02/26 06:30:27;;;;;;;;;;;;;;;5.67;100.00;100170.63;5093220;28;19924;-81
2022/02/26 06:32:55;;;;;;;;;;;;;;;5.86;100.00;100171.47;5076742;28;19931;-81
2022/02/26 06:35:22;;;;;;;;;;;;;;;5.96;100.00;100178.41;5093262;28;19969;-82
2022/02/26 06:37:49;;;;;;;;;;;;;;;6.11;100.00;100172.75;5093424;28;19924;-81
2022/02/26 06:40:17;;;;;;;;;;;;;;;6.22;100.00;100170.19;5093247;28;19974;-81
2022/02/26 06:42:45;;;;;;;;;;;;;;;6.26;100.00;100173.81;5076373;28;19974;-81
2022/02/26 06:45:12;;;;;;;;;;;;;;;6.18;100.00;100177.66;5079603;28;19977;-81
2022/02/26 06:47:39;;;;;;;;;;;;;;;5.67;100.00;100173.41;5098860;28;19924;-82
2022/02/26 06:50:07;;;;;;;;;;;;;;;5.64;100.00;100174.94;5047265;28;19924;-81
2022/02/26 06:52:34;;;;;;;;;;;;;;;5.34;100.00;100177.47;5080243;28;20371;-81
2022/02/26 06:55:01;;;;;;;;;;;;;;;5.37;100.00;100187.03;5096916;28;19924;-82
2022/02/26 06:57:40;;;;;;;;;;;;;;;5.28;100.00;100191.97;5097890;28;19924;-81
2022/02/26 07:00:08;;;;;;;;;;;;;;;5.79;100.00;100192.66;5096402;28;19928;-82
2022/02/26 07:02:35;;;;;;;;;;;;;;;5.95;100.00;100193.44;5080101;28;19924;-82
2022/02/26 07:05:02;;;;;;;;;;;;;;;5.19;100.00;100199.69;5047209;28;19977;-82
2022/02/26 07:07:30;;;;;;;;;;;;;;;5.31;100.00;100189.28;5098409;28;20023;-81
2022/02/26 07:09:57;;;;;;;;;;;;;;;5.57;100.00;100189.44;5063276;28;19925;-82
2022/02/26 07:12:24;;;;;;;;;;;;;;;5.32;100.00;100190.88;5096034;28;20399;-81
2022/02/26 07:14:51;;;;;;;;;;;;;;;5.27;100.00;100185.59;5095260;28;19924;-81
2022/02/26 07:17:19;;;;;;;;;;;;;;;5.09;100.00;100187.16;5079077;28;19931;-82
2022/02/26 07:19:46;;;;;;;;;;;;;;;5.72;100.00;100195.31;5078984;28;19924;-83
2022/02/26 07:22:13;;;;;;;;;;;;;;;6.04;100.00;100189.28;5095808;28;20026;-83
2022/02/26 07:24:40;;;;;;;;;;;;;;;5.39;100.00;100201.34;5097445;28;19924;-84
2022/02/26 07:27:13;;;;;;;;;;;;;;;5.75;100.00;100200.94;5096544;28;20434;-83
2022/02/26 07:29:40;;;;;;;;;;;;;;;5.67;100.00;100195.59;5096181;28;20290;-83
2022/02/26 07:32:08;;;;;;;;;;;;;;;5.83;100.00;100188.03;5096180;28;19928;-83
2022/02/26 07:34:35;;;;;;;;;;;;;;;5.92;100.00;100191.41;5097330;28;19949;-81
2022/02/26 07:37:03;;;;;;;;;;;;;;;6.06;100.00;100198.03;5095056;28;19931;-81
2022/02/26 07:39:30;;;;;;;;;;;;;;;6.06;100.00;100186.16;5078520;28;19994;-81
2022/02/26 07:41:57;;;;;;;;;;;;;;;5.87;100.00;100203.59;5094802;28;19924;-82
2022/02/26 07:47:42;;;;;;;;;;;;;;;6.18;100.00;100202.63;5092186;28;19924;-82
2022/02/26 07:50:09;;;;;;;;;;;;;;;6.23;100.00;100210.66;5076818;28;19924;-82
2022/02/26 07:52:36;;;;;;;;;;;;;;;6.19;100.00;100198.69;5095654;28;19970;-82
2022/02/26 07:55:06;;;;;;;;;;;;;;;6.50;100.00;100202.06;5091904;28;19956;-82
2022/02/26 07:57:34;;;;;;;;;;;;;;;6.77;100.00;100202.94;5058973;28;19929;-82
2022/02/26 08:00:01;;;;;;;;;;;;;;;6.61;100.00;100202.25;5075093;28;20090;-81
2022/02/26 08:02:34;;;;;;;;;;;;;;;6.69;100.00;100199.22;5086316;28;19932;-81
2022/02/26 08:05:01;;;;;;;;;;;;;;;6.53;100.00;100200.50;5081901;28;19930;-84
2022/02/26 08:07:28;;;;;;;;;;;;;;;6.63;100.00;100202.69;5093671;28;19931;-81
2022/02/26 08:09:55;;;;;;;;;;;;;;;6.62;100.00;100195.53;5095091;28;19931;-82
2022/02/26 08:12:22;;;;;;;;;;;;;;;6.81;100.00;100189.91;5078785;28;19924;-81
2022/02/26 08:14:51;;;;;;;;;;;;;;;6.77;100.00;100189.03;5062255;28;19924;-83
2022/02/26 08:17:18;;;;;;;;;;;;;;;7.24;100.00;100176.28;5096357;28;19924;-86
2022/02/26 08:19:48;;;;;;;;;;;;;;;7.61;100.00;100170.03;5075265;28;20023;-82
2022/02/26 08:25:34;;;;;;;;;;;;;;;8.83;100.00;100165.84;5091501;28;20027;-82
2022/02/26 08:28:01;;;;;;;;;;;;;;;9.00;100.00;100167.19;5092433;28;19924;-81
2022/02/26 08:30:28;;;;;;;;;;;;;;;9.42;100.00;100152.75;5089968;28;19924;-80
2022/02/26 08:32:58;;;;;;;;;;;;;;;9.93;100.00;100154.19;5084713;28;19925;-80
2022/02/26 08:35:26;;;;;;;;;;;;;;;10.72;100.00;100167.97;5072999;28;19963;-79
2022/02/26 08:37:53;;;;;;;;;;;;;;;11.04;100.00;100151.19;5074325;28;19924;-83
2022/02/26 08:40:20;;;;;;;;;;;;;;;11.02;100.00;100150.78;5075659;28;19924;-82
2022/02/26 08:42:48;;;;;;;;;;;;;;;9.92;100.00;100151.78;5073887;28;19929;-79
2022/02/26 08:45:15;;;;;;;;;;;;;;;10.07;100.00;100137.50;5075431;28;19932;-80
2022/02/26 08:47:42;;;;;;;;;;;;;;;9.57;100.00;100146.06;5075227;28;20379;-80
2022/02/26 08:50:11;;;;;;;;;;;;;;;9.99;100.00;100149.00;5073731;28;20015;-80
2022/02/26 08:52:40;;;;;;;;;;;;;;;10.54;100.00;100142.00;5073796;28;20073;-80
2022/02/26 08:55:08;;;;;;;;;;;;;;;10.05;100.00;100133.47;5074873;28;19924;-80
2022/02/26 08:57:35;;;;;;;;;;;;;;;9.23;100.00;100125.94;5074764;28;19935;-81
2022/02/26 09:00:04;;;;;;;;;;;;;;;9.07;100.00;100133.81;5071955;28;20422;-79
2022/02/26 09:02:32;;;;;;;;;;;;;;;9.43;100.00;100130.03;5073622;28;19928;-79
2022/02/26 09:04:59;;;;;;;;;;;;;;;9.58;100.00;100131.72;5073300;28;19931;-80
2022/02/26 09:07:27;;;;;;;;;;;;;;;9.24;100.00;100129.53;5078645;28;20011;-80
2022/02/26 09:09:54;;;;;;;;;;;;;;;9.11;100.00;100129.84;5062603;28;19924;-79
2022/02/26 09:12:21;;;;;;;;;;;;;;;9.19;100.00;100125.91;5093517;28;19924;-81
2022/02/26 09:14:49;;;;;;;;;;;;;;;9.30;100.00;100133.53;5091937;28;20020;-80
2022/02/26 09:17:16;;;;;;;;;;;;;;;9.47;100.00;100119.69;5093584;28;20010;-81
2022/02/26 09:19:43;;;;;;;;;;;;;;;9.36;100.00;100115.25;5091955;28;19931;-80
2022/02/26 09:22:11;;;;;;;;;;;;;;;9.60;100.00;100125.72;5096579;28;19951;-82
2022/02/26 09:24:39;;;;;;;;;;;;;;;8.54;100.00;100116.63;5097148;28;19924;-81
2022/02/26 09:27:06;;;;;;;;;;;;;;;9.02;100.00;100126.59;5109342;28;19956;-81
2022/02/26 09:29:34;;;;;;;;;;;;;;;9.22;100.00;100117.94;5096936;28;19924;-80
2022/02/26 09:32:01;;;;;;;;;;;;;;;9.09;100.00;100132.22;5079741;28;19924;-81
2022/02/26 09:34:29;;;;;;;;;;;;;;;9.46;100.00;100128.44;5114511;28;20336;-81
2022/02/26 09:36:56;;;;;;;;;;;;;;;9.33;100.00;100113.25;5114921;28;19951;-81
2022/02/26 09:39:23;;;;;;;;;;;;;;;9.50;100.00;100126.47;5096844;28;19924;-81
2022/02/26 09:41:50;;;;;;;;;;;;;;;9.81;100.00;100128.63;5096934;28;19928;-80
2022/02/26 09:44:19;;;;;;;;;;;;;;;9.67;100.00;100117.38;5096721;28;19924;-81
2022/02/26 09:46:46;;;;;;;;;;;;;;;9.28;100.00;100108.03;5114732;28;19931;-80
2022/02/26 09:49:14;;;;;;;;;;;;;;;9.50;100.00;100129.25;5096089;28;19924;-80
2022/02/26 09:51:42;;;;;;;;;;;;;;;9.98;100.00;100122.31;5114525;28;20353;-80
2022/02/26 09:54:09;;;;;;;;;;;;;;;9.59;100.00;100126.94;5096022;28;20327;-80
2022/02/26 09:56:37;;;;;;;;;;;;;;;10.40;100.00;100120.44;5108998;28;19924;-81
2022/02/26 09:59:05;;;;;;;;;;;;;;;10.38;100.00;100119.22;5092962;28;19970;-81
2022/02/26 10:01:32;;;;;;;;;;;;;;;10.52;100.00;100113.66;5059633;28;19937;-80
2022/02/26 10:04:09;;;;;;;;;;;;;;;10.49;100.00;100120.03;5111129;28;19967;-80
2022/02/26 10:06:37;;;;;;;;;;;;;;;9.77;100.00;100133.38;5092729;28;19978;-80
2022/02/26 10:09:09;;;;;;;;;;;;;;;9.39;100.00;100134.00;5094351;28;20267;-80
2022/02/26 10:11:37;;;;;;;;;;;;;;;10.02;100.00;100128.69;5092891;28;20014;-79
2022/02/26 10:14:07;;;;;;;;;;;;;;;8.83;100.00;100131.63;5113945;28;19924;-80
2022/02/26 10:16:47;;;;;;;;;;;;;;;8.87;100.00;100135.25;5111388;28;19933;-79
2022/02/26 10:19:34;;;;;;;;;;;;;;;9.53;100.00;100128.47;5095818;28;19930;-80
2022/02/26 10:22:03;;;;;;;;;;;;;;;9.57;100.00;100137.69;5095573;28;19931;-80
2022/02/26 10:24:31;;;;;;;;;;;;;;;9.37;100.00;100128.00;5095485;28;19963;-79
2022/02/26 10:27:00;;;;;;;;;;;;;;;9.64;100.00;100140.50;5113485;28;19923;-79
2022/02/26 10:29:28;;;;;;;;;;;;;;;9.64;100.00;100141.31;5077442;28;19924;-79
2022/02/26 10:31:57;;;;;;;;;;;;;;;9.70;100.00;100138.94;5095045;28;19934;-80
2022/02/26 10:34:38;;;;;;;;;;;;;;;9.93;100.00;100133.84;5096216;28;19955;-79
2022/02/26 10:37:05;;;;;;;;;;;;;;;9.74;100.00;100131.38;5113983;28;19962;-79
2022/02/26 10:39:37;;;;;;;;;;;;;;;9.95;100.00;100123.09;5095663;28;19946;-79
2022/02/26 10:42:06;;;;;;;;;;;;;;;9.30;100.00;100133.53;5113405;28;19963;-79
2022/02/26 10:44:33;;;;;;;;;;;;;;;9.56;100.00;100134.06;5095173;28;19923;-79
2022/02/26 10:47:04;;;;;;;;;;;;;;;9.55;100.00;100142.84;5113662;28;20313;-79
2022/02/26 10:49:31;;;;;;;;;;;;;;;9.46;100.00;100134.03;5095895;28;19924;-80
2022/02/26 10:52:04;;;;;;;;;;;;;;;9.26;100.00;100124.34;5113281;28;20337;-79
2022/02/26 10:54:31;;;;;;;;;;;;;;;9.62;100.00;100140.09;5113480;28;19924;-80
2022/02/26 10:57:05;;;;;;;;;;;;;;;8.71;100.00;100132.72;5113020;28;19992;-79
2022/02/26 10:59:33;;;;;;;;;;;;;;;8.60;100.00;100137.38;5092469;28;20382;-78
2022/02/26 11:02:06;;;;;;;;;;;;;;;9.50;100.00;100126.47;5098971;28;19970;-78
2022/02/26 11:04:34;;;;;;;;;;;;;;;9.78;100.00;100116.25;5094704;28;19931;-78
2022/02/26 11:07:01;;;;;;;;;;;;;;;9.61;100.00;100107.78;5113065;28;19924;-78
2022/02/26 11:09:29;;;;;;;;;;;;;;;9.71;100.00;100105.03;5095135;28;20361;-78
2022/02/26 11:11:57;;;;;;;;;;;;;;;9.62;100.00;100110.19;5109991;28;20328;-79
2022/02/26 11:14:26;;;;;;;;;;;;;;;9.09;100.00;100093.19;5112783;28;20401;-78
2022/02/26 11:16:56;;;;;;;;;;;;;;;9.51;100.00;100100.97;5112718;28;19928;-79
2022/02/26 11:19:24;;;;;;;;;;;;;;;9.89;100.00;100074.41;5113231;28;19923;-78
2022/02/26 11:21:52;;;;;;;;;;;;;;;9.74;100.00;100072.78;5092085;28;19928;-78
2022/02/26 11:24:19;;;;;;;;;;;;;;;10.13;100.00;100070.91;5093427;28;20006;-79
2022/02/26 11:26:47;;;;;;;;;;;;;;;10.19;100.00;100066.53;5113144;28;19923;-78
2022/02/26 11:29:16;;;;;;;;;;;;;;;9.16;100.00;100056.97;5113308;28;19931;-77
2022/02/26 11:31:51;;;;;;;;;;;;;;;9.89;100.00;100052.06;5098540;28;19928;-78
2022/02/26 11:34:24;;;;;;;;;;;;;;;10.14;100.00;100047.34;5113810;28;19997;-79
2022/02/26 11:36:56;;;;;;;;;;;;;;;9.48;100.00;100054.31;5098194;28;19927;-78
2022/02/26 11:39:25;;;;;;;;;;;;;;;9.71;100.00;100040.84;5116198;28;19931;-77
2022/02/26 11:42:12;;;;;;;;;;;;;;;9.77;100.00;100038.50;5087367;28;20480;-78
2022/02/26 11:44:44;;;;;;;;;;;;;;;10.29;100.00;100037.78;5056923;28;19927;-77
2022/02/26 11:47:19;;;;;;;;;;;;;;;10.03;100.00;100032.53;5071893;28;19939;-77
2022/02/26 11:49:57;;;;;;;;;;;;;;;10.14;100.00;100039.78;5074576;28;20027;-77
2022/02/26 11:52:39;;;;;;;;;;;;;;;10.39;100.00;100031.44;5064190;28;19924;-77
2022/02/26 11:55:26;;;;;;;;;;;;;;;10.80;100.00;100022.19;5098716;28;19928;-77
2022/02/26 11:57:55;;;;;;;;;;;;;;;10.77;100.00;100023.00;5081020;28;19924;-77
2022/02/26 12:00:23;;;;;;;;;;;;;;;10.62;100.00;100020.63;5085857;28;19923;-77
2022/02/26 12:03:08;;;;;;;;;;;;;;;10.73;100.00;100024.19;5109942;28;20022;-77
2022/02/26 12:05:35;;;;;;;;;;;;;;;10.81;100.00;100012.59;5106291;28;20301;-77
2022/02/26 12:08:08;;;;;;;;;;;;;;;10.66;100.00;100013.03;5115297;28;19931;-77
2022/02/26 12:10:35;;;;;;;;;;;;;;;10.89;100.00;100008.59;5072277;28;19924;-77
2022/02/26 12:13:21;;;;;;;;;;;;;;;10.65;100.00;100015.03;5104187;28;20282;-77
2022/02/26 12:16:06;;;;;;;;;;;;;;;9.79;100.00;100006.19;5085530;28;19931;-77
2022/02/26 12:18:40;;;;;;;;;;;;;;;10.60;100.00;99998.66;5089593;28;19924;-77
2022/02/26 12:21:11;;;;;;;;;;;;;;;10.65;100.00;99989.06;5086345;28;19928;-82
2022/02/26 12:23:43;;;;;;;;;;;;;;;10.50;100.00;99998.66;5092493;28;19924;-81
2022/02/26 12:26:11;;;;;;;;;;;;;;;9.83;100.00;99995.81;5079102;28;19925;-78
2022/02/26 12:28:39;;;;;;;;;;;;;;;10.59;100.00;99982.28;5091697;28;19933;-77
2022/02/26 12:31:07;;;;;;;;;;;;;;;10.76;100.00;99989.84;5098210;28;19974;-77
2022/02/26 12:33:38;;;;;;;;;;;;;;;10.16;100.00;99984.31;5097559;28;19959;-78
2022/02/26 12:36:07;;;;;;;;;;;;;;;10.10;100.00;99985.91;5080952;28;19981;-77
2022/02/26 12:38:34;;;;;;;;;;;;;;;10.70;100.00;99994.25;5115600;28;19924;-77
2022/02/26 12:41:23;;;;;;;;;;;;;;;9.87;100.00;99993.03;5097088;28;19924;-77
2022/02/26 12:43:50;;;;;;;;;;;;;;;10.20;100.00;99982.34;5115621;28;19935;-77
2022/02/26 12:46:17;;;;;;;;;;;;;;;10.35;100.00;99986.72;5098856;28;20325;-77
2022/02/26 12:48:45;;;;;;;;;;;;;;;10.48;100.00;99984.31;5093667;28;19924;-77